Time;durP1;ratioP1;P1;durP2;ratioP2;P2;SDS_P1;SDS_P2;PMS_P1;PMS_P2;Temp;Humidity;BMP_temperature;BMP_pressure;BME280_temperature;BME280_humidity;BME280_pressure;Samples;Min_cycle;Max_cycle;Signal;HPM_P1;HPM_P2
2023/05/01 00:02:41;;;;;;;29.70;16.60;;;;;;;3.15;69.02;100887.78;129285;1258;127870;-66
2023/05/01 00:05:44;;;;;;;28.40;16.90;;;;;;;3.13;69.15;100885.88;129463;1265;115199;-67
2023/05/01 00:08:46;;;;;;;25.80;16.00;;;;;;;3.12;69.42;100884.13;129489;1261;114819;-67
2023/05/01 00:11:49;;;;;;;24.40;16.30;;;;;;;3.09;69.06;100879.73;129525;1261;114699;-67
2023/05/01 00:14:53;;;;;;;29.60;15.40;;;;;;;3.05;69.16;100879.95;129312;1265;115082;-65
2023/05/01 00:18:57;;;;;;;20.10;12.30;;;;;;;3.00;69.17;100880.52;130505;1257;114822;-73
2023/05/01 00:26:56;;;;;;;18.20;11.00;;;;;;;2.90;69.33;100879.02;128773;1276;114783;-73
2023/05/01 00:30:58;;;;;;;34.00;19.10;;;;;;;2.85;69.32;100875.52;128029;1300;114898;-71
2023/05/01 00:34:50;;;;;;;34.40;18.40;;;;;;;2.80;69.57;100874.15;127430;1287;114940;-71
2023/05/01 00:38:27;;;;;;;;;;;;;;;;;;;;;
2023/05/01 00:42:17;;;;;;;;;;;;;;;;;;;;;
2023/05/01 00:46:06;;;;;;;35.40;19.70;;;;;;;2.67;69.72;100868.27;126587;1308;116508;-68
2023/05/01 00:49:50;;;;;;;37.00;19.80;;;;;;;2.64;70.00;100863.19;126871;1308;114807;-65
2023/05/01 00:53:28;;;;;;;43.40;18.40;;;;;;;2.61;70.08;100863.55;125397;1299;115026;-72
2023/05/01 00:57:12;;;;;;;;;;;;;;;;;;;;;
2023/05/01 01:01:15;;;;;;;31.70;17.70;;;;;;;2.53;70.26;100853.58;125001;1320;130651;-63
2023/05/01 01:05:06;;;;;;;38.20;18.90;;;;;;;2.48;70.03;100848.67;126035;1315;114835;-68
2023/05/01 01:09:11;;;;;;;31.40;18.60;;;;;;;2.44;70.54;100846.05;126104;1292;114968;-71
2023/05/01 01:13:11;;;;;;;35.30;18.10;;;;;;;2.40;70.47;100849.60;125974;1315;114905;-72
2023/05/01 01:16:50;;;;;;;30.10;18.80;;;;;;;2.36;70.37;100846.98;126369;1296;114943;-65
2023/05/01 01:21:04;;;;;;;28.40;17.80;;;;;;;2.31;70.58;100847.36;126639;1294;130044;-68
2023/05/01 01:24:53;;;;;;;31.00;17.40;;;;;;;2.26;70.54;100843.16;122041;1313;5424181;-72
2023/05/01 01:29:05;;;;;;;25.10;17.20;;;;;;;2.22;70.61;100847.24;125120;1323;114996;-68
2023/05/01 01:32:53;;;;;;;;;;;;;;;;;;;;;
2023/05/01 01:36:50;;;;;;;31.50;17.80;;;;;;;2.11;70.77;100843.98;125550;1309;115059;-72
2023/05/01 01:40:55;;;;;;;27.60;17.60;;;;;;;2.07;70.74;100844.70;125539;1298;128503;-69
2023/05/01 01:44:55;;;;;;;30.60;17.40;;;;;;;2.01;70.81;100842.27;125706;1300;115396;-70
2023/05/01 01:48:57;;;;;;;25.70;16.50;;;;;;;1.97;70.97;100834.36;125664;1300;116600;-72
2023/05/01 01:52:41;;;;;;;31.00;17.70;;;;;;;1.93;71.19;100835.80;125930;1292;114929;-65
2023/05/01 01:56:20;;;;;;;36.50;18.40;;;;;;;1.90;71.21;100835.29;125995;1298;115000;-70
2023/05/01 02:00:15;;;;;;;27.80;17.70;;;;;;;1.88;71.35;100838.82;125754;1298;128748;-62
2023/05/01 02:04:09;;;;;;;;;;;;;;;;;;;;;
2023/05/01 02:08:04;;;;;;;;;;;;;;;;;;;;;
2023/05/01 02:12:04;;;;;;;;;;;;;;;;;;;;;
2023/05/01 02:16:15;;;;;;;40.20;21.80;;;;;;;1.82;71.92;100830.21;126462;1295;636044;-72
2023/05/01 02:19:46;;;;;;;;;;;;;;;;;;;;;
2023/05/01 02:23:35;;;;;;;32.60;19.20;;;;;;;1.79;72.16;100828.11;127223;1284;115383;-64
2023/05/01 02:27:38;;;;;;;34.10;19.90;;;;;;;1.77;72.09;100820.20;127071;1296;114957;-73
2023/05/01 02:31:29;;;;;;;30.20;18.30;;;;;;;1.73;72.14;100820.92;122605;1296;114938;-63
2023/05/01 02:35:18;;;;;;;;;;;;;;;;;;;;;
2023/05/01 02:38:56;;;;;;;30.20;17.90;;;;;;;1.67;72.62;100810.55;125590;1308;115202;-71
2023/05/01 02:42:22;;;;;;;34.60;19.60;;;;;;;1.65;72.49;100814.11;125447;1309;129984;-72
2023/05/01 02:45:51;;;;;;;;;;;;;;;;;;;;;
2023/05/01 02:49:46;;;;;;;29.20;18.80;;;;;;;1.61;72.69;100818.15;124653;1324;114948;-71
2023/05/01 02:53:45;;;;;;;;;;;;;;;;;;;;;
2023/05/01 03:01:56;;;;;;;;;;;;;;;;;;;;;
2023/05/01 03:05:48;;;;;;;39.50;21.30;;;;;;;1.46;72.45;100810.13;128524;1278;129227;-71
2023/05/01 03:09:34;;;;;;;;;;;;;;;;;;;;;
2023/05/01 03:13:23;;;;;;;48.70;25.80;;;;;;;1.43;73.38;100809.95;127296;1303;114881;-68
2023/05/01 03:17:26;;;;;;;43.30;25.30;;;;;;;1.41;72.94;100806.27;123043;1292;114891;-68
2023/05/01 03:21:19;;;;;;;;;;;;;;;;;;;;;
2023/05/01 03:25:19;;;;;;;43.50;24.10;;;;;;;1.36;72.94;100802.24;125502;1320;114885;-71
2023/05/01 03:29:21;;;;;;;38.00;22.00;;;;;;;1.36;73.25;100802.41;125689;1301;129853;-71
2023/05/01 03:33:22;;;;;;;44.60;25.20;;;;;;;1.39;73.57;100800.48;124968;1314;115483;-71
2023/05/01 03:37:14;;;;;;;;;;;;;;;;;;;;;
2023/05/01 03:41:35;;;;;;;40.40;25.10;;;;;;;1.47;73.70;100794.27;126239;1305;636007;-70
2023/05/01 03:45:31;;;;;;;36.80;22.50;;;;;;;1.49;73.65;100798.33;128402;1295;128505;-70
2023/05/01 03:49:33;;;;;;;40.20;22.80;;;;;;;1.51;73.85;100800.06;127970;1284;115193;-64
2023/05/01 03:57:28;;;;;;;38.40;24.10;;;;;;;1.58;73.73;100799.33;125686;1320;114909;-69
2023/05/01 04:01:28;;;;;;;;;;;;;;;;;;;;;
2023/05/01 04:09:49;;;;;;;43.90;26.40;;;;;;;1.75;74.09;100791.68;126368;1291;635990;-70
2023/05/01 04:13:52;;;;;;;40.00;23.60;;;;;;;1.82;74.10;100791.98;128689;1276;129014;-71
2023/05/01 04:17:47;;;;;;;;;;;;;;;;;;;;;
2023/05/01 04:21:45;;;;;;;39.20;22.40;;;;;;;2.04;74.31;100786.23;122318;1296;5415709;-69
2023/05/01 04:34:07;;;;;;;32.60;21.10;;;;;;;2.42;74.47;100784.90;128524;1279;128879;-71
2023/05/01 04:38:10;;;;;;;40.90;21.20;;;;;;;2.56;74.38;100784.59;127045;1287;115352;-76
2023/05/01 04:42:13;;;;;;;35.80;21.30;;;;;;;2.70;74.40;100786.77;122152;1310;5419270;-74
2023/05/01 04:46:14;;;;;;;31.50;18.50;;;;;;;2.89;74.37;100784.64;125449;1307;114922;-73
2023/05/01 04:54:38;;;;;;;35.30;20.20;;;;;;;3.85;75.39;100782.80;126128;1295;635558;-75
2023/05/01 04:58:29;;;;;;;30.30;16.70;;;;;;;5.33;75.89;100777.61;127419;1296;129183;-75
2023/05/01 05:02:32;;;;;;;34.20;16.40;;;;;;;6.88;74.20;100769.62;126770;1302;115375;-76
2023/05/01 05:06:32;;;;;;;27.00;15.10;;;;;;;8.31;73.02;100764.71;122436;1297;5508645;-74
2023/05/01 05:10:33;;;;;;;25.80;14.70;;;;;;;9.52;70.92;100761.05;125466;1319;114935;-75
2023/05/01 05:14:27;;;;;;;;;;;;;;;;;;;;;
2023/05/01 05:22:15;;;;;;;;;;;;;;;;;;;;;
2023/05/01 05:26:20;;;;;;;25.00;12.50;;;;;;;11.97;63.64;100755.33;128525;1279;130118;-75
2023/05/01 05:30:22;;;;;;;18.20;11.90;;;;;;;12.41;63.19;100749.44;127999;1285;115304;-74
2023/05/01 05:34:24;;;;;;;20.70;12.20;;;;;;;12.63;61.80;100741.89;122878;1311;5495108;-73
2023/05/01 05:41:58;;;;;;;20.00;11.70;;;;;;;12.80;59.77;100738.33;126450;1306;635912;-73
2023/05/01 05:45:54;;;;;;;21.00;12.10;;;;;;;12.69;59.64;100739.62;128410;1280;128986;-73
2023/05/01 05:49:48;;;;;;;25.10;11.70;;;;;;;12.53;59.00;100737.73;127910;1281;115034;-76
2023/05/01 05:53:42;;;;;;;;;;;;;;;;;;;;;
2023/05/01 05:57:19;;;;;;;19.70;11.90;;;;;;;13.06;58.44;100732.00;122506;1314;114964;-74
2023/05/01 06:00:55;;;;;;;20.10;11.20;;;;;;;13.50;58.33;100730.19;125938;1314;114859;-74
2023/05/01 06:04:58;;;;;;;23.60;11.50;;;;;;;14.11;57.38;100731.62;126759;1295;115169;-69
2023/05/01 06:08:24;;;;;;;19.30;11.50;;;;;;;14.71;56.79;100735.52;125700;1305;129891;-70
2023/05/01 06:11:54;;;;;;;21.70;11.80;;;;;;;15.33;56.23;100734.31;125436;1298;115499;-70
2023/05/01 06:15:15;;;;;;;23.40;12.40;;;;;;;15.69;55.00;100731.34;125559;1307;115234;-71
2023/05/01 06:18:37;;;;;;;20.00;12.00;;;;;;;16.10;54.59;100729.61;125561;1303;114987;-70
2023/05/01 06:22:12;;;;;;;;;;;;;;;;;;;;;
2023/05/01 06:25:48;;;;;;;20.50;11.00;;;;;;;16.77;52.79;100721.55;125943;1303;129783;-72
2023/05/01 06:29:50;;;;;;;21.80;12.00;;;;;;;17.07;52.17;100724.17;126247;1301;114841;-70
2023/05/01 06:33:18;;;;;;;17.80;10.30;;;;;;;17.58;52.21;100721.99;125888;1308;114984;-69
2023/05/01 06:36:40;;;;;;;15.50;9.80;;;;;;;18.01;50.62;100721.08;127456;1303;115029;-69
2023/05/01 06:40:48;;;;;;;16.50;8.70;;;;;;;18.29;50.28;100717.21;126734;1303;114910;-70
2023/05/01 06:44:01;;;;;;;16.70;9.90;;;;;;;18.59;48.72;100710.59;126590;1288;128871;-70
2023/05/01 06:47:43;;;;;;;;;;;;;;;;;;;;;
2023/05/01 06:51:19;;;;;;;14.30;10.10;;;;;;;18.53;47.80;100709.79;126902;1283;114894;-71
2023/05/01 06:55:04;;;;;;;22.10;9.90;;;;;;;18.73;47.28;100708.23;127389;1306;115032;-66
2023/05/01 06:58:30;;;;;;;17.50;10.60;;;;;;;19.02;46.69;100707.13;127016;1306;114923;-71
2023/05/01 07:02:23;;;;;;;;;;;;;;;;;;;;;
2023/05/01 07:06:03;;;;;;;18.50;10.50;;;;;;;19.28;45.86;100694.07;126059;1303;115273;-74
2023/05/01 07:09:29;;;;;;;19.60;9.50;;;;;;;19.56;44.94;100691.99;127119;1301;114836;-74
2023/05/01 07:13:14;;;;;;;;;;;;;;;;;;;;;
2023/05/01 07:16:37;;;;;;;16.90;9.40;;;;;;;19.82;42.86;100684.98;126575;1294;115313;-73
2023/05/01 07:20:17;;;;;;;20.80;9.80;;;;;;;20.03;43.38;100681.28;127270;1288;128208;-72
2023/05/01 07:23:49;;;;;;;16.10;9.70;;;;;;;20.29;42.80;100677.45;127794;1280;115294;-71
2023/05/01 07:27:23;;;;;;;13.80;8.70;;;;;;;20.48;41.54;100673.33;127941;1281;115059;-75
2023/05/01 07:31:10;;;;;;;;;;;;;;;;;;;;;
2023/05/01 07:34:48;;;;;;;12.20;8.20;;;;;;;21.45;41.37;100666.02;128882;1276;114756;-72
2023/05/01 07:38:34;;;;;;;12.50;7.60;;;;;;;21.99;40.13;100666.81;128040;1282;128841;-72
2023/05/01 07:42:06;;;;;;;12.90;8.80;;;;;;;22.44;38.21;100665.08;127873;1298;115451;-63
2023/05/01 07:45:41;;;;;;;13.90;8.60;;;;;;;22.69;37.53;100663.61;128088;1283;114982;-61
2023/05/01 07:49:55;;;;;;;13.30;7.50;;;;;;;22.76;36.64;100658.99;127574;1283;114846;-62
2023/05/01 07:53:43;;;;;;;;;;;;;;;;;;;;;
2023/05/01 07:57:37;;;;;;;15.40;7.60;;;;;;;23.33;35.96;100650.42;126123;1292;129991;-62
2023/05/01 08:01:37;;;;;;;;;;;;;;;;;;;;;
2023/05/01 08:06:09;;;;;;;10.10;6.40;;;;;;;23.67;33.58;100646.12;125145;1311;638418;-61
2023/05/01 08:10:02;;;;;;;8.50;5.80;;;;;;;23.63;33.89;100646.20;127413;1294;128883;-62
2023/05/01 08:14:05;;;;;;;10.60;5.60;;;;;;;23.90;33.61;100642.58;126886;1290;114949;-60
2023/05/01 08:17:54;;;;;;;12.90;6.50;;;;;;;24.13;33.69;100636.09;123387;1301;5434077;-62
2023/05/01 08:21:34;;;;;;;10.50;5.90;;;;;;;24.45;33.58;100630.27;126982;1284;114934;-59
2023/05/01 08:24:59;;;;;;;12.20;6.60;;;;;;;24.55;33.10;100627.29;126440;1290;116246;-60
2023/05/01 08:28:37;;;;;;;10.00;6.20;;;;;;;24.73;33.06;100632.91;126462;1308;114899;-60
2023/05/01 08:32:20;;;;;;;;;;;;;;;;;;;;;
2023/05/01 08:36:30;;;;;;;;;;;;;;;;;;;;;
2023/05/01 08:40:07;;;;;;;11.60;5.60;;;;;;;24.38;30.34;100621.59;126338;1313;114934;-60
2023/05/01 08:44:06;;;;;;;13.10;5.80;;;;;;;24.06;31.06;100622.09;125989;1299;114936;-60
2023/05/01 08:47:56;;;;;;;;;;;;;;;;;;;;;
2023/05/01 08:51:43;;;;;;;13.40;5.70;;;;;;;24.06;30.65;100618.08;127735;1292;127659;-61
2023/05/01 08:55:38;;;;;;;10.60;5.00;;;;;;;23.67;30.75;100616.06;127738;1302;116624;-61
2023/05/01 08:59:09;;;;;;;10.40;5.10;;;;;;;23.14;30.23;100613.76;127634;1288;114980;-60
2023/05/01 09:03:10;;;;;;;15.30;5.30;;;;;;;22.46;29.54;100612.05;127596;1283;114853;-59
2023/05/01 09:07:09;;;;;;;11.30;5.70;;;;;;;21.95;30.35;100610.05;126713;1305;114891;-61
2023/05/01 09:10:48;;;;;;;10.80;5.60;;;;;;;21.77;30.75;100602.48;126142;1295;127745;-60
2023/05/01 09:14:48;;;;;;;;;;;;;;;;;;;;;
2023/05/01 09:19:11;;;;;;;10.60;5.20;;;;;;;21.45;31.13;100594.56;125896;1297;114874;-61
2023/05/01 09:23:03;;;;;;;10.20;5.80;;;;;;;21.46;31.33;100590.92;125546;1319;114968;-60
2023/05/01 09:27:04;;;;;;;8.90;4.80;;;;;;;21.43;30.80;100590.95;125550;1319;114913;-61
2023/05/01 09:30:57;;;;;;;9.60;5.00;;;;;;;21.09;30.26;100581.48;125023;1303;127662;-61
2023/05/01 09:34:49;;;;;;;8.60;4.10;;;;;;;20.68;30.28;100577.02;125349;1303;115468;-61
2023/05/01 09:38:29;;;;;;;10.00;4.70;;;;;;;20.26;30.09;100575.10;125349;1311;115044;-62
2023/05/01 09:42:10;;;;;;;;;;;;;;;;;;;;;
2023/05/01 09:45:57;;;;;;;;;;;;;;;;;;;;;
2023/05/01 09:49:40;;;;;;;6.90;4.20;;;;;;;19.60;30.91;100566.84;125069;1307;129773;-63
2023/05/01 09:53:20;;;;;;;8.90;4.40;;;;;;;19.32;31.14;100565.82;125297;1298;116801;-63
2023/05/01 09:57:05;;;;;;;10.20;4.80;;;;;;;19.04;31.26;100566.67;125381;1303;114913;-61
2023/05/01 10:00:32;;;;;;;;;;;;;;;;;;;;;
2023/05/01 10:04:34;;;;;;;9.30;4.30;;;;;;;18.47;31.19;100559.20;125699;1300;114965;-61
2023/05/01 10:08:36;;;;;;;;;;;;;;;;;;;;;
2023/05/01 10:12:36;;;;;;;8.70;4.80;;;;;;;17.96;31.66;100558.98;125402;1303;116690;-62
2023/05/01 10:16:22;;;;;;;;;;;;;;;;;;;;;
2023/05/01 10:20:07;;;;;;;8.60;4.60;;;;;;;17.84;32.02;100542.37;125368;1319;114943;-61
2023/05/01 10:24:09;;;;;;;6.70;4.40;;;;;;;17.80;32.32;100534.86;125417;1303;114889;-63
2023/05/01 10:27:57;;;;;;;;;;;;;;;;;;;;;
2023/05/01 10:31:52;;;;;;;;;;;;;;;;;;;;;
2023/05/01 10:35:45;;;;;;;9.50;4.60;;;;;;;17.56;32.75;100518.82;125829;1307;115026;-61
2023/05/01 10:39:22;;;;;;;10.10;5.00;;;;;;;17.68;33.39;100508.14;125550;1303;114901;-62
2023/05/01 10:43:19;;;;;;;10.80;4.30;;;;;;;17.79;32.91;100511.63;125355;1321;114939;-61
2023/05/01 10:46:49;;;;;;;;;;;;;;;;;;;;;
2023/05/01 10:50:42;;;;;;;8.80;3.50;;;;;;;17.95;32.36;100500.70;125648;1297;115269;-62
2023/05/01 10:54:52;;;;;;;7.00;3.10;;;;;;;17.86;32.22;100490.30;125884;1313;115063;-61
2023/05/01 10:58:33;;;;;;;6.70;3.20;;;;;;;17.89;32.67;100490.10;125879;1299;115245;-60
2023/05/01 11:02:35;;;;;;;6.90;3.50;;;;;;;17.92;31.98;100483.34;126115;1292;115261;-62
2023/05/01 11:06:33;;;;;;;;;;;;;;;;;;;;;
2023/05/01 11:10:37;;;;;;;8.60;3.30;;;;;;;17.87;32.16;100468.73;125800;1300;115430;-61
2023/05/01 11:14:35;;;;;;;;;;;;;;;;;;;;;
2023/05/01 11:18:22;;;;;;;7.20;3.70;;;;;;;17.93;32.09;100453.70;126344;1290;114757;-60
2023/05/01 11:22:08;;;;;;;;;;;;;;;;;;;;;
2023/05/01 11:26:26;;;;;;;6.40;4.20;;;;;;;17.90;31.35;100445.90;125988;1314;130474;-59
2023/05/01 11:29:58;;;;;;;;;;;;;;;;;;;;;
2023/05/01 11:33:54;;;;;;;;;;;;;;;;;;;;;
2023/05/01 11:37:41;;;;;;;6.40;3.40;;;;;;;17.72;31.30;100432.68;125167;1307;114862;-63
2023/05/01 11:41:43;;;;;;;9.60;4.00;;;;;;;17.71;31.63;100419.42;124307;1329;114907;-62
2023/05/01 11:45:47;;;;;;;13.40;6.20;;;;;;;17.74;31.32;100407.26;125099;1324;128085;-62
2023/05/01 11:49:42;;;;;;;;;;;;;;;;;;;;;
2023/05/01 11:53:42;;;;;;;7.90;3.90;;;;;;;17.83;31.79;100390.45;123902;1333;114920;-63
2023/05/01 12:01:11;;;;;;;6.70;3.80;;;;;;;17.92;30.95;100384.35;126223;1295;635433;-60
2023/05/01 12:05:14;;;;;;;10.00;3.80;;;;;;;17.94;30.74;100382.06;128759;1266;129780;-61
2023/05/01 12:08:53;;;;;;;7.40;3.50;;;;;;;17.93;30.80;100374.13;128026;1278;115257;-61
2023/05/01 12:12:13;;;;;;;5.70;3.80;;;;;;;17.94;30.64;100371.73;128377;1279;115350;-60
2023/05/01 12:15:51;;;;;;;7.50;4.00;;;;;;;17.92;30.13;100368.66;124639;1275;5453038;-61
2023/05/01 12:19:27;;;;;;;8.50;3.90;;;;;;;17.90;30.00;100367.00;128586;1275;115066;-61
2023/05/01 12:23:31;;;;;;;6.20;3.70;;;;;;;17.94;30.37;100363.55;128527;1273;114918;-60
2023/05/01 12:27:24;;;;;;;;;;;;;;;;;;;;;
2023/05/01 12:31:37;;;;;;;4.20;2.80;;;;;;;18.03;29.59;100353.68;126214;1295;115500;-62
2023/05/01 12:35:38;;;;;;;3.60;2.40;;;;;;;18.08;28.12;100347.69;125231;1319;115188;-61
2023/05/01 12:39:41;;;;;;;5.00;2.00;;;;;;;18.12;27.94;100337.27;127583;1301;114949;-64
2023/05/01 12:43:15;;;;;;;5.80;3.30;;;;;;;18.17;27.66;100336.81;124825;1329;114942;-61
2023/05/01 12:47:07;;;;;;;5.70;2.80;;;;;;;18.25;27.61;100326.27;124515;1314;131223;-61
2023/05/01 12:50:55;;;;;;;;;;;;;;;;;;;;;
2023/05/01 12:55:12;;;;;;;;;;;;;;;;;;;;;
2023/05/01 12:59:17;;;;;;;8.30;4.70;;;;;;;18.47;27.26;100311.46;127180;1281;128996;-61
2023/05/01 13:07:23;;;;;;;;;;;;;;;;;;;;;
2023/05/01 13:11:27;;;;;;;;;;;;;;;;;;;;;
2023/05/01 13:15:37;;;;;;;6.00;4.10;;;;;;;18.58;28.06;100287.04;127412;1292;115285;-63
2023/05/01 13:19:29;;;;;;;;;;;;;;;;;;;;;
2023/05/01 13:23:38;;;;;;;5.50;4.10;;;;;;;18.68;28.47;100278.81;125472;1311;114863;-62
2023/05/01 13:27:32;;;;;;;5.50;2.80;;;;;;;18.74;28.49;100265.81;125231;1307;114882;-61
2023/05/01 13:31:24;;;;;;;8.30;3.90;;;;;;;18.77;28.12;100255.64;124569;1329;115002;-61
2023/05/01 13:35:04;;;;;;;11.30;4.20;;;;;;;18.78;28.44;100252.11;123753;1320;128595;-60
2023/05/01 13:38:55;;;;;;;9.30;4.20;;;;;;;18.82;28.25;100249.55;123236;1325;115748;-65
2023/05/01 13:43:16;;;;;;;4.70;3.10;;;;;;;18.91;28.48;100241.94;126444;1295;635963;-62
2023/05/01 13:47:06;;;;;;;9.30;3.40;;;;;;;18.95;28.41;100239.45;128896;1275;128923;-74
2023/05/01 13:51:11;;;;;;;4.10;3.60;;;;;;;19.01;28.48;100238.77;127818;1281;115280;-62
2023/05/01 13:55:13;;;;;;;5.00;3.20;;;;;;;19.06;28.16;100232.73;122823;1299;5408206;-61
2023/05/01 13:59:07;;;;;;;;;;;;;;;;;;;;;
2023/05/01 14:03:04;;;;;;;6.80;3.70;;;;;;;19.17;28.16;100221.46;124628;1329;116570;-62
2023/05/01 14:06:38;;;;;;;6.10;3.50;;;;;;;19.23;28.34;100216.23;123538;1330;114874;-61
2023/05/01 14:10:12;;;;;;;5.20;3.60;;;;;;;19.32;28.50;100211.67;123850;1314;130027;-63
2023/05/01 14:13:53;;;;;;;6.40;3.20;;;;;;;19.39;28.08;100206.52;123432;1320;115308;-61
2023/05/01 14:21:57;;;;;;;5.10;3.40;;;;;;;19.61;28.75;100197.09;126082;1306;638546;-65
2023/05/01 14:26:04;;;;;;;;;;;;;;;;;;;;;
2023/05/01 14:29:29;;;;;;;4.80;3.20;;;;;;;19.78;28.44;100184.73;129134;1267;115240;-62
2023/05/01 14:32:53;;;;;;;;;;;;;;;19.81;28.10;100182.51;129023;1268;114853;-62
2023/05/01 14:36:11;;;;;;;;;;;;;;;;;;;;;
2023/05/01 14:39:58;;;;;;;;;;;;;;;;;;;;;
2023/05/01 14:43:21;;;;;;;7.00;4.00;;;;;;;19.91;28.10;100165.16;129027;1279;114902;-64
2023/05/01 14:47:25;;;;;;;5.20;3.20;;;;;;;19.93;27.89;100157.13;129011;1271;128751;-62
2023/05/01 14:51:02;;;;;;;5.50;3.40;;;;;;;19.94;27.89;100152.03;128525;1294;115291;-61
2023/05/01 14:54:24;;;;;;;5.60;3.60;;;;;;;19.99;28.12;100151.88;128431;1294;114844;-63
2023/05/01 14:58:05;;;;;;;8.30;3.80;;;;;;;20.03;28.08;100148.27;128604;1271;114935;-62
2023/05/01 15:01:40;;;;;;;;;;;;;;;;;;;;;
2023/05/01 15:04:51;;;;;;;7.90;3.60;;;;;;;20.00;28.07;100147.27;128506;1275;129112;-61
2023/05/01 15:08:36;;;;;;;4.10;2.90;;;;;;;20.00;27.72;100143.11;128706;1273;115452;-63
2023/05/01 15:11:44;;;;;;;5.10;3.00;;;;;;;19.98;28.13;100140.71;128098;1283;115259;-62
2023/05/01 15:14:59;;;;;;;;;;;;;;;;;;;;;
2023/05/01 15:18:42;;;;;;;3.90;2.00;;;;;;;19.98;28.35;100133.48;128063;1298;114870;-62
2023/05/01 15:21:47;;;;;;;3.80;2.20;;;;;;;19.97;28.38;100129.96;127780;1284;129033;-63
2023/05/01 15:25:33;;;;;;;8.20;3.40;;;;;;;19.93;28.48;100129.79;127866;1282;114728;-61
2023/05/01 15:29:19;;;;;;;77.10;46.40;;;;;;;19.90;28.54;100120.61;127380;1287;114881;-62
2023/05/01 15:32:43;;;;;;;248.80;149.20;;;;;;;19.88;28.64;100115.20;126809;1308;114976;-59
2023/05/01 15:36:02;;;;;;;33.90;19.90;;;;;;;19.84;28.37;100110.42;126560;1307;115187;-62
2023/05/01 15:39:25;;;;;;;111.20;68.00;;;;;;;19.79;28.60;100109.30;126672;1292;129463;-62
2023/05/01 15:43:21;;;;;;;83.70;49.80;;;;;;;19.75;28.65;100106.36;127035;1304;115319;-61
2023/05/01 15:46:37;;;;;;;185.00;107.50;;;;;;;19.68;29.01;100104.60;126666;1292;114858;-61
2023/05/01 15:50:10;;;;;;;14.70;10.10;;;;;;;19.61;29.12;100104.55;127111;1285;115009;-61
2023/05/01 15:53:19;;;;;;;19.80;11.80;;;;;;;19.50;29.23;100099.22;126608;1291;114984;-61
2023/05/01 15:56:36;;;;;;;48.50;31.60;;;;;;;19.43;29.63;100098.39;126484;1308;128630;-60
2023/05/01 16:00:18;;;;;;;;;;;;;;;;;;;;;
2023/05/01 16:04:17;;;;;;;31.00;20.40;;;;;;;19.24;30.09;100096.64;127003;1287;114859;-61
2023/05/01 16:07:54;;;;;;;6.60;3.80;;;;;;;19.16;30.44;100097.70;127699;1300;114911;-63
2023/05/01 16:15:42;;;;;;;6.80;2.70;;;;;;;19.07;31.15;100096.15;127769;1282;127498;-61
2023/05/01 16:19:23;;;;;;;7.00;3.90;;;;;;;19.06;31.61;100090.29;127492;1284;115240;-61
2023/05/01 16:22:41;;;;;;;3.80;2.90;;;;;;;19.05;32.01;100087.66;127759;1295;114903;-61
2023/05/01 16:25:55;;;;;;;8.20;3.10;;;;;;;19.03;32.34;100084.56;128223;1287;114916;-60
2023/05/01 16:29:18;;;;;;;7.20;3.00;;;;;;;19.00;32.85;100081.89;128021;1287;114863;-61
2023/05/01 16:32:48;;;;;;;;;;;;;;;;;;;;;
2023/05/01 16:36:52;;;;;;;4.90;3.30;;;;;;;18.95;33.53;100077.66;128739;1281;115295;-60
2023/05/01 16:40:03;;;;;;;4.40;3.90;;;;;;;18.89;33.71;100075.92;128397;1285;114855;-60
2023/05/01 16:43:15;;;;;;;10.00;4.00;;;;;;;18.84;33.82;100074.22;128483;1285;114957;-62
2023/05/01 16:46:29;;;;;;;16.50;11.10;;;;;;;18.81;34.13;100075.38;128813;1280;114908;-61
2023/05/01 16:49:39;;;;;;;9.50;6.80;;;;;;;18.78;34.39;100074.55;128662;1279;128350;-61
2023/05/01 16:53:02;;;;;;;;;;;;;;;;;;;;;
2023/05/01 16:56:10;;;;;;;13.30;7.10;;;;;;;18.68;34.89;100081.76;129090;1286;115147;-62
2023/05/01 16:59:26;;;;;;;10.10;5.10;;;;;;;18.60;35.24;100076.66;129092;1277;114918;-62
2023/05/01 17:02:47;;;;;;;6.30;3.90;;;;;;;18.54;35.61;100076.11;129238;1267;114893;-62
2023/05/01 17:06:21;;;;;;;7.90;4.70;;;;;;;18.47;35.92;100074.90;129044;1267;128374;-62
2023/05/01 17:10:02;;;;;;;;;;;;;;;;;;;;;
2023/05/01 17:13:14;;;;;;;11.40;4.20;;;;;;;18.34;36.54;100074.57;128750;1285;115000;-62
2023/05/01 17:17:10;;;;;;;4.90;3.40;;;;;;;18.29;36.75;100072.66;129102;1280;114722;-61
2023/05/01 17:20:43;;;;;;;7.30;3.60;;;;;;;18.23;36.82;100074.39;128668;1276;114895;-63
2023/05/01 17:24:29;;;;;;;;;;;;;;;;;;;;;
2023/05/01 17:28:23;;;;;;;7.20;4.20;;;;;;;18.12;37.17;100066.89;127893;1286;115485;-61
2023/05/01 17:32:03;;;;;;;;;;;;;;;;;;;;;
2023/05/01 17:35:59;;;;;;;8.70;4.30;;;;;;;17.97;37.77;100062.88;128070;1282;114776;-61
2023/05/01 17:39:34;;;;;;;;;;;;;;;;;;;;;
2023/05/01 17:43:32;;;;;;;;;;;;;;;;;;;;;
2023/05/01 17:47:40;;;;;;;7.10;3.70;;;;;;;17.70;38.60;100059.34;127331;1285;115201;-62
2023/05/01 17:51:37;;;;;;;4.60;3.80;;;;;;;17.58;39.04;100057.77;126973;1293;114839;-62
2023/05/01 17:55:26;;;;;;;12.90;5.10;;;;;;;17.47;39.49;100061.92;126239;1312;114921;-61
2023/05/01 17:59:12;;;;;;;13.70;5.60;;;;;;;17.36;39.94;100059.94;126224;1308;114975;-61
2023/05/01 18:03:07;;;;;;;;;;;;;;;;;;;;;
2023/05/01 18:06:52;;;;;;;53.80;25.10;;;;;;;17.10;41.06;100060.23;124908;1305;115797;-60
2023/05/01 18:14:54;;;;;;;;;;;;;;;;;;;;;
2023/05/01 18:18:48;;;;;;;;;;;;;;;;;;;;;
2023/05/01 18:22:45;;;;;;;;;;;;;;;;;;;;;
2023/05/01 18:26:24;;;;;;;12.60;6.60;;;;;;;16.45;43.06;100066.45;127891;1282;114907;-61
2023/05/01 18:30:17;;;;;;;;;;;;;;;;;;;;;
2023/05/01 18:34:34;;;;;;;11.20;8.00;;;;;;;16.21;43.90;100071.48;126586;1309;115003;-62
2023/05/01 18:38:26;;;;;;;17.40;7.70;;;;;;;16.12;44.48;100074.48;125324;1320;115000;-61
2023/05/01 18:42:07;;;;;;;11.40;6.70;;;;;;;16.05;44.99;100081.19;124930;1308;129792;-64
2023/05/01 18:45:49;;;;;;;12.70;7.20;;;;;;;15.98;45.09;100081.14;124816;1307;115814;-63
2023/05/01 18:49:32;;;;;;;;;;;;;;;;;;;;;
2023/05/01 18:53:27;;;;;;;;;;;;;;;;;;;;;
2023/05/01 19:01:55;;;;;;;;;;;;;;;;;;;;;
2023/05/01 19:05:59;;;;;;;13.00;6.20;;;;;;;15.76;46.42;100088.53;128722;1275;128803;-61
2023/05/01 19:10:01;;;;;;;13.10;6.10;;;;;;;15.72;46.59;100087.75;128089;1281;114840;-61
2023/05/01 19:14:04;;;;;;;12.20;6.30;;;;;;;15.67;46.90;100088.11;123806;1283;5430473;-64
2023/05/01 19:17:48;;;;;;;16.70;6.80;;;;;;;15.61;47.14;100084.75;126202;1296;115075;-63
2023/05/01 19:21:40;;;;;;;8.30;6.10;;;;;;;15.57;47.23;100084.54;126224;1296;115054;-69
2023/05/01 19:25:07;;;;;;;;;;;;;;;;;;;;;
2023/05/01 19:28:55;;;;;;;10.70;6.70;;;;;;;15.45;47.47;100087.17;125506;1308;129891;-70
2023/05/01 19:32:56;;;;;;;17.00;7.10;;;;;;;15.36;47.88;100083.75;125545;1301;114993;-69
2023/05/01 19:36:31;;;;;;;14.60;6.90;;;;;;;15.24;47.98;100085.13;124832;1323;115007;-71
2023/05/01 19:40:23;;;;;;;;;;;;;;;;;;;;;
2023/05/01 19:44:25;;;;;;;10.70;7.30;;;;;;;15.02;48.34;100082.90;124694;1315;115002;-71
2023/05/01 19:48:05;;;;;;;;;;;;;;;;;;;;;
2023/05/01 19:51:58;;;;;;;16.50;8.70;;;;;;;14.75;49.03;100083.60;125872;1297;115990;-69
2023/05/01 19:55:44;;;;;;;19.00;8.70;;;;;;;14.59;49.44;100082.52;127483;1288;114944;-71
2023/05/01 19:59:41;;;;;;;;;;;;;;;;;;;;;
2023/05/01 20:03:41;;;;;;;14.50;8.10;;;;;;;14.23;49.82;100084.78;126529;1294;114961;-70
2023/05/01 20:07:13;;;;;;;14.30;7.90;;;;;;;14.07;50.35;100088.20;125797;1297;128414;-71
2023/05/01 20:10:17;;;;;;;10.20;6.80;;;;;;;13.93;50.67;100088.27;125704;1310;115310;-72
2023/05/01 20:13:59;;;;;;;24.20;14.20;;;;;;;13.80;50.81;100083.89;125974;1315;114975;-73
2023/05/01 20:17:49;;;;;;;;;;;;;;;;;;;;;
2023/05/01 20:21:34;;;;;;;;;;;;;;;;;;;;;
2023/05/01 20:25:14;;;;;;;24.70;12.80;;;;;;;13.46;51.94;100087.92;125331;1321;128546;-72
2023/05/01 20:28:36;;;;;;;;;;;;;;;;;;;;;
2023/05/01 20:32:35;;;;;;;;;;;;;;;;;;;;;
2023/05/01 20:36:19;;;;;;;;;;;;;;;;;;;;;
2023/05/01 20:39:55;;;;;;;;;;;;;;;;;;;;;
2023/05/01 20:43:30;;;;;;;;;;;;;;;;;;;;;
2023/05/01 20:47:17;;;;;;;;;;;;;;;;;;;;;
2023/05/01 20:51:04;;;;;;;20.20;10.80;;;;;;;12.77;53.92;100093.10;126668;1289;115180;-75
2023/05/01 20:55:03;;;;;;;36.30;22.30;;;;;;;12.71;54.11;100093.30;126857;1291;115044;-72